createdAt,value
2018-09-04T00:00:17.394Z,35.03
2018-09-04T00:02:46.559Z,29.60
2018-09-04T00:05:15.629Z,25.80
2018-09-04T00:07:44.726Z,28.73
2018-09-04T00:10:14.000Z,28.90
2018-09-04T00:12:43.210Z,27.43
2018-09-04T00:15:12.243Z,26.40
2018-09-04T00:17:41.262Z,31.87
2018-09-04T00:20:10.369Z,29.83
2018-09-04T00:22:39.390Z,29.00
2018-09-04T00:25:08.396Z,28.30
2018-09-04T00:27:37.427Z,27.50
2018-09-04T00:30:06.831Z,27.07
2018-09-04T00:32:35.829Z,26.83
2018-09-04T00:35:05.292Z,29.33
2018-09-04T00:37:34.313Z,26.73
2018-09-04T00:40:03.521Z,28.27
2018-09-04T00:42:32.585Z,27.77
2018-09-04T00:45:01.900Z,24.97
2018-09-04T00:47:30.994Z,24.90
2018-09-04T00:50:00.041Z,24.23
2018-09-04T00:52:29.150Z,30.33
2018-09-04T00:54:58.192Z,27.07
2018-09-04T00:57:27.274Z,28.70
2018-09-04T00:59:56.334Z,30.53
2018-09-04T01:02:25.403Z,32.40
2018-09-04T01:04:54.511Z,29.17
2018-09-04T01:07:23.604Z,34.13
2018-09-04T01:09:52.707Z,27.20
2018-09-04T01:12:21.727Z,28.00
2018-09-04T01:14:54.920Z,30.47
2018-09-04T01:17:24.187Z,26.17
2018-09-04T01:19:53.179Z,32.10
2018-09-04T01:22:22.411Z,27.17
2018-09-04T01:24:51.438Z,31.23
2018-09-04T01:27:20.487Z,26.10
2018-09-04T01:29:49.581Z,26.73
2018-09-04T01:32:18.661Z,25.67
2018-09-04T01:34:47.674Z,23.90
2018-09-04T01:37:16.969Z,32.00
2018-09-04T01:39:46.003Z,23.10
2018-09-04T01:42:15.178Z,27.73
2018-09-04T01:44:44.286Z,28.33
2018-09-04T01:47:13.288Z,23.93
2018-09-04T01:49:42.277Z,22.80
2018-09-04T01:52:11.264Z,25.50
2018-09-04T01:54:40.309Z,25.63
2018-09-04T01:57:09.429Z,26.43
2018-09-04T01:59:38.468Z,26.33
2018-09-04T02:02:07.540Z,25.30
2018-09-04T02:04:36.610Z,27.13
2018-09-04T02:07:05.693Z,26.93
2018-09-04T02:09:34.796Z,26.60
2018-09-04T02:12:03.882Z,25.80
2018-09-04T02:14:32.966Z,31.27
2018-09-04T02:17:02.129Z,30.13
2018-09-04T02:19:31.357Z,30.83
2018-09-04T02:22:00.506Z,33.10
2018-09-04T02:24:29.690Z,29.13
2018-09-04T02:26:58.799Z,32.63
2018-09-04T02:29:27.814Z,30.07
2018-09-04T02:31:56.995Z,28.37
2018-09-04T02:34:26.010Z,29.23
2018-09-04T02:36:55.086Z,29.97
2018-09-04T02:39:24.179Z,33.80
2018-09-04T02:41:53.336Z,28.07
2018-09-04T02:44:22.464Z,31.57
2018-09-04T02:46:51.921Z,29.17
2018-09-04T02:49:20.999Z,45.27
2018-09-04T02:51:50.057Z,33.27
2018-09-04T02:54:19.167Z,31.00
2018-09-04T02:56:48.163Z,34.90
2018-09-04T02:59:17.300Z,37.43
2018-09-04T03:01:46.441Z,32.43
2018-09-04T03:04:15.539Z,34.80
2018-09-04T03:06:44.786Z,35.27
2018-09-04T03:09:13.789Z,30.67
2018-09-04T03:11:42.931Z,32.13
2018-09-04T03:14:12.018Z,35.00
2018-09-04T03:16:41.084Z,31.63
2018-09-04T03:19:10.095Z,32.40
2018-09-04T03:21:39.103Z,30.87
2018-09-04T03:24:08.090Z,27.80
2018-09-04T03:26:37.329Z,28.20
2018-09-04T03:29:06.595Z,29.90
2018-09-04T03:31:35.634Z,32.40
2018-09-04T03:34:04.707Z,25.13
2018-09-04T03:36:33.778Z,27.90
2018-09-04T03:39:02.951Z,31.60
2018-09-04T03:41:32.041Z,89.27
2018-09-04T03:44:01.274Z,37.57
2018-09-04T03:46:30.285Z,27.90
2018-09-04T03:48:59.277Z,31.90
2018-09-04T03:51:28.841Z,26.13
2018-09-04T03:53:57.883Z,26.63
2018-09-04T03:56:26.887Z,32.37
2018-09-04T03:58:55.983Z,32.40
2018-09-04T04:01:25.013Z,28.93
2018-09-04T04:03:54.051Z,30.27
2018-09-04T04:06:23.144Z,30.43
2018-09-04T04:08:52.331Z,27.13
2018-09-04T04:11:21.318Z,29.33
2018-09-04T04:13:50.341Z,29.57
2018-09-04T04:16:19.330Z,34.77
2018-09-04T04:18:48.322Z,36.43
2018-09-04T04:21:17.319Z,35.37
2018-09-04T04:23:46.448Z,35.50
2018-09-04T04:26:15.506Z,75.13
2018-09-04T04:28:44.613Z,50.30
2018-09-04T04:31:13.646Z,41.33
2018-09-04T04:33:42.666Z,38.07
2018-09-04T04:36:11.793Z,50.77
2018-09-04T04:38:40.957Z,43.17
2018-09-04T04:41:10.015Z,55.80
2018-09-04T04:43:39.048Z,38.37
2018-09-04T04:46:08.088Z,38.47
2018-09-04T04:48:37.185Z,37.90
2018-09-04T04:51:06.225Z,35.83
2018-09-04T04:53:35.303Z,42.77
2018-09-04T04:56:04.434Z,39.87
2018-09-04T04:58:33.546Z,40.87
2018-09-04T05:01:02.743Z,37.23
2018-09-04T05:03:31.819Z,42.80
2018-09-04T05:06:00.883Z,41.53
2018-09-04T05:08:30.241Z,37.73
2018-09-04T05:10:59.377Z,35.40
2018-09-04T05:13:28.434Z,38.40
2018-09-04T05:15:57.488Z,45.13
2018-09-04T05:18:26.489Z,47.77
2018-09-04T05:20:55.592Z,36.60
2018-09-04T05:23:24.579Z,44.77
2018-09-04T05:25:53.572Z,39.73
2018-09-04T05:28:22.537Z,50.47
2018-09-04T05:30:51.594Z,43.57
2018-09-04T05:33:26.042Z,37.30
2018-09-04T05:35:56.636Z,39.67
2018-09-04T05:38:25.813Z,46.23
2018-09-04T05:40:54.839Z,46.00
2018-09-04T05:43:41.319Z,40.00
2018-09-04T05:46:13.575Z,50.50
2018-09-04T05:48:42.674Z,44.47
2018-09-04T05:51:11.695Z,38.03
2018-09-04T05:53:40.835Z,46.87
2018-09-04T05:56:09.990Z,51.00
2018-09-04T05:58:39.095Z,43.43
2018-09-04T06:01:08.155Z,42.47
2018-09-04T06:03:37.182Z,38.03
2018-09-04T06:06:06.007Z,46.20
2018-09-04T06:08:35.125Z,43.53
2018-09-04T06:11:04.328Z,43.73
2018-09-04T06:13:33.373Z,43.37
2018-09-04T06:16:02.372Z,41.13
2018-09-04T06:18:32.032Z,46.07
2018-09-04T06:21:01.114Z,45.53
2018-09-04T06:23:30.102Z,51.33
2018-09-04T06:25:59.143Z,43.67
2018-09-04T06:28:28.130Z,48.40
2018-09-04T06:30:57.217Z,51.67
2018-09-04T06:33:26.221Z,47.47
2018-09-04T06:35:55.318Z,48.23
2018-09-04T06:38:24.384Z,51.33
2018-09-04T06:40:53.478Z,40.77
2018-09-04T06:43:22.558Z,39.37
2018-09-04T06:45:51.683Z,46.73
2018-09-04T06:48:20.690Z,42.03
2018-09-04T06:50:49.767Z,49.50
2018-09-04T06:53:18.775Z,49.53
2018-09-04T06:55:47.764Z,45.60
2018-09-04T06:58:16.745Z,46.23
2018-09-04T07:00:45.729Z,39.50
2018-09-04T07:03:14.835Z,53.87
2018-09-04T07:05:43.907Z,41.00
2018-09-04T07:08:12.915Z,48.83
2018-09-04T07:10:41.999Z,38.57
2018-09-04T07:13:11.078Z,46.70
2018-09-04T07:15:40.154Z,48.57
2018-09-04T07:18:09.219Z,42.53
2018-09-04T07:20:38.235Z,42.63
2018-09-04T07:23:07.286Z,42.20
2018-09-04T07:25:36.276Z,44.80
2018-09-04T07:28:05.652Z,41.50
2018-09-04T07:30:34.832Z,44.50
2018-09-04T07:33:03.793Z,48.17
2018-09-04T07:35:33.595Z,45.90
2018-09-04T07:38:02.618Z,47.90
2018-09-04T07:40:32.287Z,50.33
2018-09-04T07:43:01.252Z,45.43
2018-09-04T07:45:30.279Z,43.93
2018-09-04T07:47:59.383Z,53.67
2018-09-04T07:50:28.383Z,49.00
2018-09-04T07:52:57.350Z,45.53
2018-09-04T07:55:26.528Z,48.93
2018-09-04T07:57:55.522Z,46.07
2018-09-04T08:00:24.526Z,45.33
2018-09-04T08:02:53.834Z,40.77
2018-09-04T08:05:22.876Z,42.37
2018-09-04T08:07:51.886Z,45.67
2018-09-04T08:10:20.922Z,42.43
2018-09-04T08:12:49.913Z,41.13
2018-09-04T08:15:18.995Z,39.27
2018-09-04T08:17:48.041Z,41.97
2018-09-04T08:20:17.082Z,44.70
2018-09-04T08:22:46.090Z,46.10
2018-09-04T08:25:15.348Z,45.00
2018-09-04T08:27:44.356Z,53.40
2018-09-04T08:30:13.798Z,45.13
2018-09-04T08:32:42.926Z,48.53
2018-09-04T08:35:11.998Z,42.23
2018-09-04T08:37:41.076Z,43.40
2018-09-04T08:40:10.142Z,44.90
2018-09-04T08:42:39.203Z,46.27
2018-09-04T08:45:08.259Z,45.37
2018-09-04T08:47:37.295Z,49.60
2018-09-04T08:50:06.349Z,53.77
2018-09-04T08:52:35.417Z,48.80
2018-09-04T08:55:04.437Z,49.27
2018-09-04T08:57:33.662Z,49.40
2018-09-04T09:00:02.767Z,45.87
2018-09-04T09:02:31.883Z,52.43
2018-09-04T09:05:01.013Z,55.37
2018-09-04T09:07:29.987Z,51.03
2018-09-04T09:09:59.165Z,51.43
2018-09-04T09:12:28.250Z,49.27
2018-09-04T09:14:57.630Z,46.57
2018-09-04T09:17:26.748Z,49.83
2018-09-04T09:19:55.980Z,51.83
2018-09-04T09:22:24.997Z,49.30
2018-09-04T09:24:54.050Z,46.23
2018-09-04T09:27:29.798Z,48.07
2018-09-04T09:29:58.823Z,49.87
2018-09-04T09:32:27.910Z,48.20
2018-09-04T09:34:57.004Z,47.20
2018-09-04T09:37:26.096Z,46.47
2018-09-04T09:39:55.595Z,49.77
2018-09-04T09:42:24.626Z,47.30
2018-09-04T09:44:53.735Z,48.50
2018-09-04T09:47:22.838Z,41.50
2018-09-04T09:49:51.914Z,47.87
2018-09-04T09:52:21.002Z,42.50
2018-09-04T09:54:50.077Z,43.80
2018-09-04T09:57:19.123Z,45.60
2018-09-04T09:59:48.137Z,47.80
2018-09-04T10:02:20.055Z,43.50
2018-09-04T10:04:49.045Z,47.53
2018-09-04T10:07:18.066Z,45.13
2018-09-04T10:09:47.345Z,42.47
2018-09-04T10:12:16.338Z,47.57
2018-09-04T10:14:45.530Z,45.27
2018-09-04T10:17:14.669Z,39.07
2018-09-04T10:19:43.787Z,45.70
2018-09-04T10:22:12.943Z,39.57
2018-09-04T10:24:42.057Z,38.13
2018-09-04T10:27:11.143Z,38.83
2018-09-04T10:29:40.235Z,31.60
2018-09-04T10:32:09.399Z,35.17
2018-09-04T10:34:38.426Z,31.57
2018-09-04T10:37:07.513Z,30.27
2018-09-04T10:39:41.926Z,28.57
2018-09-04T10:42:11.035Z,27.87
2018-09-04T10:44:40.187Z,30.20
2018-09-04T10:47:09.324Z,26.60
2018-09-04T10:49:38.305Z,28.43
2018-09-04T10:52:07.355Z,32.03
2018-09-04T10:54:36.436Z,26.40
2018-09-04T10:57:05.709Z,24.30
2018-09-04T10:59:34.758Z,26.20
2018-09-04T11:02:03.791Z,26.33
2018-09-04T11:04:32.851Z,29.10
2018-09-04T11:07:01.890Z,25.23
2018-09-04T11:09:31.073Z,24.43
2018-09-04T11:12:00.102Z,24.03
2018-09-04T11:14:29.164Z,21.97
2018-09-04T11:16:58.549Z,22.17
2018-09-04T11:19:27.546Z,22.27
2018-09-04T11:21:56.614Z,22.57
2018-09-04T11:24:25.615Z,21.40
2018-09-04T11:26:54.832Z,21.40
2018-09-04T11:29:23.837Z,18.20
2018-09-04T11:31:52.830Z,17.53
2018-09-04T11:34:21.855Z,18.87
2018-09-04T11:36:50.889Z,18.90
2018-09-04T11:39:19.895Z,19.07
2018-09-04T11:41:48.890Z,17.43
2018-09-04T11:44:17.905Z,17.53
2018-09-04T11:46:46.947Z,19.97
2018-09-04T11:49:16.015Z,18.37
2018-09-04T11:51:45.075Z,18.00
2018-09-04T11:54:14.125Z,18.30
2018-09-04T11:56:43.167Z,18.80
2018-09-04T11:59:12.212Z,20.37
2018-09-04T12:01:44.962Z,18.33
2018-09-04T12:04:14.084Z,18.03
2018-09-04T12:06:43.179Z,18.67
2018-09-04T12:09:12.095Z,18.07
2018-09-04T12:11:41.165Z,17.90
2018-09-04T12:14:10.139Z,17.00
2018-09-04T12:16:39.278Z,17.83
2018-09-04T12:19:09.576Z,17.83
2018-09-04T12:21:38.546Z,17.13
2018-09-04T12:24:07.561Z,17.27
2018-09-04T12:26:36.674Z,19.80
2018-09-04T12:29:06.004Z,16.30
2018-09-04T12:31:35.103Z,16.80
2018-09-04T12:34:04.360Z,17.50
2018-09-04T12:36:33.374Z,19.87
2018-09-04T12:39:02.333Z,19.67
2018-09-04T12:41:31.413Z,19.03
2018-09-04T12:44:00.457Z,17.53
2018-09-04T12:46:30.781Z,17.27
2018-09-04T12:48:59.793Z,17.93
2018-09-04T12:51:28.869Z,19.30
2018-09-04T12:53:58.026Z,16.87
2018-09-04T12:56:27.094Z,17.30
2018-09-04T12:58:56.371Z,17.47
2018-09-04T13:01:25.419Z,17.33
2018-09-04T13:03:54.476Z,17.80
2018-09-04T13:06:23.501Z,16.77
2018-09-04T13:08:52.659Z,16.83
2018-09-04T13:11:21.610Z,17.73
2018-09-04T13:13:50.642Z,17.97
2018-09-04T13:16:19.657Z,17.30
2018-09-04T13:18:48.642Z,16.47
2018-09-04T13:21:21.719Z,16.10
2018-09-04T13:23:50.683Z,15.80
2018-09-04T13:26:19.698Z,15.00
2018-09-04T13:28:48.741Z,14.63
2018-09-04T13:31:17.770Z,16.23
2018-09-04T13:33:46.828Z,15.40
2018-09-04T13:36:16.002Z,15.67
2018-09-04T13:38:45.033Z,14.33
2018-09-04T13:41:14.195Z,15.40
2018-09-04T13:43:43.192Z,14.53
2018-09-04T13:46:12.220Z,15.43
2018-09-04T13:48:41.353Z,14.77
2018-09-04T13:51:10.503Z,15.23
2018-09-04T13:53:39.524Z,16.23
2018-09-04T13:56:08.619Z,14.77
2018-09-04T13:58:37.814Z,15.37
2018-09-04T14:01:06.905Z,16.73
2018-09-04T14:03:35.926Z,15.90
2018-09-04T14:06:04.966Z,15.47
2018-09-04T14:08:34.050Z,15.83
2018-09-04T14:11:03.110Z,15.97
2018-09-04T14:13:32.098Z,16.27
2018-09-04T14:16:03.071Z,15.97
2018-09-04T14:18:32.151Z,16.87
2018-09-04T14:21:01.187Z,16.00
2018-09-04T14:23:30.291Z,16.10
2018-09-04T14:25:59.306Z,15.50
2018-09-04T14:28:41.957Z,15.87
2018-09-04T14:30:57.470Z,17.23
2018-09-04T14:33:26.567Z,15.87
2018-09-04T14:35:55.722Z,16.83
2018-09-04T14:38:24.938Z,16.37
2018-09-04T14:40:53.997Z,17.00
2018-09-04T14:43:23.079Z,17.77
2018-09-04T14:45:52.126Z,19.57
2018-09-04T14:48:21.127Z,15.67
2018-09-04T14:50:50.255Z,16.43
2018-09-04T14:53:19.303Z,17.03
2018-09-04T14:55:48.393Z,16.73
2018-09-04T14:58:17.670Z,17.67
2018-09-04T15:00:46.669Z,17.53
2018-09-04T15:03:16.005Z,19.53
2018-09-04T15:05:45.114Z,17.90
2018-09-04T15:08:14.148Z,18.63
2018-09-04T15:10:43.263Z,20.27
2018-09-04T15:13:12.387Z,19.97
2018-09-04T15:15:41.520Z,18.17
2018-09-04T15:18:10.494Z,19.53
2018-09-04T15:20:39.526Z,19.17
2018-09-04T15:23:08.550Z,18.17
2018-09-04T15:25:37.765Z,18.60
2018-09-04T15:28:06.865Z,19.80
2018-09-04T15:30:35.878Z,19.37
2018-09-04T15:33:05.006Z,17.80
2018-09-04T15:35:34.030Z,18.43
2018-09-04T15:38:03.054Z,17.80
2018-09-04T15:40:32.562Z,18.93
2018-09-04T15:43:01.699Z,18.27
2018-09-04T15:45:30.845Z,19.47
2018-09-04T15:47:59.885Z,19.77
2018-09-04T15:50:28.877Z,20.80
2018-09-04T15:52:57.873Z,18.43
2018-09-04T15:55:26.985Z,20.87
2018-09-04T15:57:56.014Z,20.70
2018-09-04T16:00:25.226Z,21.47
2018-09-04T16:02:54.353Z,23.57
2018-09-04T16:05:23.843Z,19.77
2018-09-04T16:07:53.086Z,20.77
2018-09-04T16:10:22.188Z,20.07
2018-09-04T16:12:51.181Z,21.43
2018-09-04T16:15:20.298Z,19.60
2018-09-04T16:17:49.515Z,18.13
2018-09-04T16:20:18.601Z,19.90
2018-09-04T16:22:47.663Z,20.07
2018-09-04T16:25:16.742Z,20.30
2018-09-04T16:27:45.849Z,19.47
2018-09-04T16:30:14.934Z,21.13
2018-09-04T16:32:44.017Z,23.40
2018-09-04T16:35:13.082Z,19.50
2018-09-04T16:37:42.267Z,20.73
2018-09-04T16:40:11.278Z,19.07
2018-09-04T16:42:40.326Z,20.43
2018-09-04T16:45:09.371Z,18.20
2018-09-04T16:47:38.386Z,20.00
2018-09-04T16:50:07.373Z,20.33
2018-09-04T16:52:36.387Z,18.33
2018-09-04T16:55:05.589Z,19.50
2018-09-04T16:57:34.646Z,20.30
2018-09-04T17:00:03.595Z,21.87
2018-09-04T17:02:32.650Z,21.50
2018-09-04T17:05:01.735Z,20.00
2018-09-04T17:07:30.695Z,22.33
2018-09-04T17:09:59.841Z,20.57
2018-09-04T17:12:28.853Z,19.40
2018-09-04T17:14:57.846Z,20.70
2018-09-04T17:17:26.894Z,18.90
2018-09-04T17:19:55.938Z,19.23
2018-09-04T17:22:25.034Z,18.43
2018-09-04T17:24:54.057Z,18.80
2018-09-04T17:27:23.055Z,19.57
2018-09-04T17:29:52.150Z,19.97
2018-09-04T17:32:21.260Z,20.63
2018-09-04T17:34:50.231Z,18.53
2018-09-04T17:37:19.317Z,20.13
2018-09-04T17:39:48.433Z,19.03
2018-09-04T17:42:17.506Z,20.13
2018-09-04T17:44:46.656Z,21.70
2018-09-04T17:47:15.678Z,19.53
2018-09-04T17:49:44.835Z,19.80
2018-09-04T17:52:13.884Z,18.80
2018-09-04T17:54:43.051Z,18.93
2018-09-04T17:57:12.050Z,20.20
2018-09-04T17:59:41.083Z,21.57
2018-09-04T18:02:10.274Z,21.43
2018-09-04T18:04:39.285Z,21.40
2018-09-04T18:07:08.423Z,21.77
2018-09-04T18:09:37.441Z,20.53
2018-09-04T18:12:06.599Z,22.90
2018-09-04T18:14:35.589Z,22.57
2018-09-04T18:17:04.726Z,21.50
2018-09-04T18:19:33.926Z,22.03
2018-09-04T18:22:02.994Z,22.43
2018-09-04T18:24:32.381Z,23.90
2018-09-04T18:27:01.457Z,23.20
2018-09-04T18:29:30.584Z,22.73
2018-09-04T18:31:59.781Z,22.93
2018-09-04T18:34:28.887Z,25.33
2018-09-04T18:36:58.319Z,23.17
2018-09-04T18:39:27.478Z,23.83
2018-09-04T18:41:56.542Z,23.47
2018-09-04T18:44:25.643Z,23.73
2018-09-04T18:46:54.742Z,24.87
2018-09-04T18:49:23.842Z,24.57
2018-09-04T18:51:52.919Z,23.93
2018-09-04T18:54:22.053Z,24.57
2018-09-04T18:56:51.225Z,24.47
2018-09-04T18:59:20.394Z,24.47
2018-09-04T19:01:49.402Z,24.03
2018-09-04T19:04:18.469Z,24.17
2018-09-04T19:09:54.390Z,25.03
2018-09-04T19:12:23.613Z,26.13
2018-09-04T19:14:52.641Z,25.80
2018-09-04T19:17:21.661Z,28.13
2018-09-04T19:19:50.734Z,26.93
2018-09-04T19:22:19.768Z,24.60
2018-09-04T19:24:49.033Z,24.70
2018-09-04T19:27:18.184Z,26.70
2018-09-04T19:29:47.317Z,26.33
2018-09-04T19:32:16.401Z,25.83
2018-09-04T19:34:45.459Z,26.80
2018-09-04T19:37:14.518Z,24.87
2018-09-04T19:39:43.516Z,25.37
2018-09-04T19:42:12.500Z,26.17
2018-09-04T19:44:41.701Z,25.70
2018-09-04T19:47:10.831Z,24.33
2018-09-04T19:49:39.918Z,26.80
2018-09-04T19:52:08.950Z,26.20
2018-09-04T19:54:38.062Z,25.63
2018-09-04T19:57:07.147Z,24.67
2018-09-04T19:59:36.211Z,24.83
2018-09-04T20:02:05.247Z,25.10
2018-09-04T20:04:34.252Z,24.80
2018-09-04T20:07:03.427Z,24.57
2018-09-04T20:09:32.647Z,24.73
2018-09-04T20:12:01.750Z,24.67
2018-09-04T20:14:30.827Z,24.83
2018-09-04T20:16:59.935Z,24.63
2018-09-04T20:19:29.032Z,26.53
2018-09-04T20:21:58.062Z,24.83
2018-09-04T20:24:27.105Z,25.07
2018-09-04T20:26:56.214Z,25.37
2018-09-04T20:29:25.330Z,25.53
2018-09-04T20:31:54.317Z,25.97
2018-09-04T20:34:23.527Z,24.93
2018-09-04T20:36:52.635Z,26.40
2018-09-04T20:39:21.758Z,27.47
2018-09-04T20:41:50.871Z,27.00
2018-09-04T20:44:19.896Z,27.63
2018-09-04T20:46:49.026Z,26.30
2018-09-04T20:49:18.413Z,29.50
2018-09-04T20:51:48.235Z,29.73
2018-09-04T20:54:17.304Z,28.20
2018-09-04T20:56:56.642Z,30.13
2018-09-04T20:59:38.367Z,26.43
2018-09-04T21:02:18.787Z,26.17
2018-09-04T21:04:59.489Z,31.90
2018-09-04T21:07:45.327Z,27.20
2018-09-04T21:10:14.412Z,27.90
2018-09-04T21:12:43.394Z,29.77
2018-09-04T21:15:12.498Z,28.23
2018-09-04T21:17:41.638Z,30.67
2018-09-04T21:20:10.694Z,28.83
2018-09-04T21:22:39.792Z,26.83
2018-09-04T21:25:08.876Z,27.27
2018-09-04T21:27:38.022Z,27.33
2018-09-04T21:30:07.128Z,28.43
2018-09-04T21:32:36.206Z,27.13
2018-09-04T21:35:05.374Z,26.77
2018-09-04T21:37:34.426Z,28.13
2018-09-04T21:40:03.410Z,26.43
2018-09-04T21:42:32.685Z,23.07
2018-09-04T21:45:01.646Z,26.00
2018-09-04T21:47:30.811Z,24.53
2018-09-04T21:49:59.842Z,25.93
2018-09-04T21:52:28.971Z,23.83
2018-09-04T21:54:58.051Z,23.67
2018-09-04T21:57:27.119Z,23.53
2018-09-04T21:59:56.214Z,24.70
2018-09-04T22:02:25.526Z,22.73
2018-09-04T22:04:54.543Z,22.50
2018-09-04T22:07:23.656Z,23.77
2018-09-04T22:09:52.822Z,22.73
2018-09-04T22:12:21.829Z,22.43
2018-09-04T22:14:51.028Z,23.07
2018-09-04T22:17:20.106Z,22.40
2018-09-04T22:19:49.218Z,24.20
2018-09-04T22:22:18.269Z,24.87
2018-09-04T22:24:47.295Z,25.37
2018-09-04T22:27:16.375Z,24.50
2018-09-04T22:29:45.353Z,23.80
2018-09-04T22:32:14.388Z,24.77
2018-09-04T22:34:43.478Z,21.60
2018-09-04T22:37:12.666Z,20.53
2018-09-04T22:39:41.878Z,19.57
2018-09-04T22:42:10.893Z,19.37
2018-09-04T22:44:39.873Z,22.80
2018-09-04T22:47:08.944Z,19.80
2018-09-04T22:49:40.975Z,20.77
2018-09-04T22:52:10.035Z,22.23
2018-09-04T22:54:39.092Z,20.87
2018-09-04T22:57:08.184Z,21.27
2018-09-04T22:59:37.226Z,23.13
2018-09-04T23:02:06.557Z,20.43
2018-09-04T23:04:35.607Z,19.87
2018-09-04T23:07:04.743Z,20.90
2018-09-04T23:09:33.935Z,20.83
2018-09-04T23:12:02.955Z,23.73
2018-09-04T23:14:31.934Z,21.57
2018-09-04T23:17:00.989Z,23.67
2018-09-04T23:19:29.968Z,22.83
2018-09-04T23:21:58.943Z,25.37
2018-09-04T23:24:27.974Z,25.50
2018-09-04T23:26:57.127Z,24.53
2018-09-04T23:29:26.155Z,28.47
2018-09-04T23:31:55.209Z,23.47
2018-09-04T23:34:24.295Z,22.60
2018-09-04T23:36:53.423Z,24.13
2018-09-04T23:39:22.642Z,22.77
2018-09-04T23:41:51.831Z,22.43
2018-09-04T23:44:20.857Z,23.17
2018-09-04T23:46:49.870Z,22.43
2018-09-04T23:49:18.929Z,22.90
2018-09-04T23:51:47.986Z,21.70
2018-09-04T23:54:16.987Z,23.57
2018-09-04T23:56:46.159Z,22.93
2018-09-04T23:59:15.578Z,23.83
